Time;durP1;ratioP1;P1;durP2;ratioP2;P2;SDS_P1;SDS_P2;PMS_P1;PMS_P2;Temp;Humidity;BMP_temperature;BMP_pressure;BME280_temperature;BME280_humidity;BME280_pressure;Samples;Min_cycle;Max_cycle;Signal;HPM_P1;HPM_P2
2022/01/19 00:00:36;;;;;;;;;28.50;25.75;;;;;-145.45;100.00;57426.63;4990919;28;47011;-73
2022/01/19 00:03:02;;;;;;;;;28.00;23.50;;;;;-145.45;100.00;57426.63;4973323;28;47392;-73
2022/01/19 00:05:27;;;;;;;;;34.25;28.50;;;;;-145.45;100.00;57426.63;4981040;28;45250;-73
2022/01/19 00:07:52;;;;;;;;;39.50;34.00;;;;;-145.45;100.00;57426.63;4995527;28;47170;-73
2022/01/19 00:10:20;;;;;;;;;20.25;17.50;;;;;-145.45;100.00;57426.63;4980838;28;45389;-73
2022/01/19 00:12:46;;;;;;;;;32.75;26.50;;;;;-145.45;100.00;57426.63;4980143;28;45343;-73
2022/01/19 00:15:13;;;;;;;;;18.25;17.75;;;;;-145.45;100.00;57426.63;4979675;28;45275;-73
2022/01/19 00:17:39;;;;;;;;;23.00;20.00;;;;;-145.45;100.00;57426.63;4978705;28;45469;-73
2022/01/19 00:20:07;;;;;;;;;18.00;17.00;;;;;-145.45;100.00;57426.63;4980892;28;45463;-73
2022/01/19 00:22:33;;;;;;;;;26.25;21.25;;;;;-145.45;100.00;57426.63;4978557;28;47226;-73
2022/01/19 00:24:58;;;;;;;;;44.50;33.25;;;;;-145.45;100.00;57426.63;4979422;28;45512;-73
2022/01/19 00:27:23;;;;;;;;;22.75;22.50;;;;;-145.45;100.00;57426.63;4980066;28;45425;-73
2022/01/19 00:29:49;;;;;;;;;23.00;22.00;;;;;-145.45;100.00;57426.63;4980606;28;45559;-73
2022/01/19 00:32:14;;;;;;;;;22.00;16.25;;;;;-145.45;100.00;57426.63;4979607;28;45394;-72
2022/01/19 00:34:40;;;;;;;;;20.00;18.00;;;;;-145.45;100.00;57426.63;4980658;28;45322;-73
2022/01/19 00:37:05;;;;;;;;;21.25;18.50;;;;;-145.45;100.00;57426.63;4978986;28;45238;-73
2022/01/19 00:39:32;;;;;;;;;19.75;18.50;;;;;-145.45;100.00;57426.63;4980714;28;45353;-73
2022/01/19 00:41:59;;;;;;;;;40.50;37.00;;;;;-145.45;100.00;57426.63;4979844;28;45200;-73
2022/01/19 00:44:25;;;;;;;;;22.00;18.75;;;;;-145.45;100.00;57426.63;4976923;28;45323;-73
2022/01/19 00:46:50;;;;;;;;;23.00;18.50;;;;;-145.45;100.00;57426.63;4979695;28;45453;-73
2022/01/19 00:49:16;;;;;;;;;25.00;17.75;;;;;-145.45;100.00;57426.63;4979129;28;45372;-73
2022/01/19 00:51:41;;;;;;;;;22.50;18.00;;;;;-145.45;100.00;57426.63;4979785;28;45428;-73
2022/01/19 00:54:06;;;;;;;;;30.75;23.50;;;;;-145.45;100.00;57426.63;4995508;28;45334;-73
2022/01/19 00:56:34;;;;;;;;;22.75;16.75;;;;;-145.45;100.00;57426.63;4979780;28;45299;-73
2022/01/19 00:59:00;;;;;;;;;20.75;18.00;;;;;-145.45;100.00;57426.63;4979240;28;45582;-73
2022/01/19 01:01:25;;;;;;;;;28.50;24.50;;;;;-145.45;100.00;57426.63;4968604;28;46460;-73
2022/01/19 01:03:51;;;;;;;;;21.00;19.00;;;;;-145.45;100.00;57426.63;4979970;28;45298;-73
2022/01/19 01:06:16;;;;;;;;;21.25;18.50;;;;;-145.45;100.00;57426.63;4983023;28;45186;-73
2022/01/19 01:08:43;;;;;;;;;26.50;18.75;;;;;-145.45;100.00;57426.63;4979973;28;45528;-73
2022/01/19 01:11:08;;;;;;;;;20.25;17.50;;;;;-145.45;100.00;57426.63;4994121;28;47512;-73
2022/01/19 01:16:31;;;;;;;;;29.50;24.25;;;;;-145.45;100.00;57426.63;4979512;28;45178;-73
2022/01/19 01:18:57;;;;;;;;;30.75;25.50;;;;;-145.45;100.00;57426.63;4975645;28;45313;-73
2022/01/19 01:21:24;;;;;;;;;23.50;21.25;;;;;-145.45;100.00;57426.63;4994553;28;47491;-73
2022/01/19 01:23:49;;;;;;;;;17.75;16.75;;;;;-145.45;100.00;57426.63;4994990;28;45420;-73
2022/01/19 01:26:14;;;;;;;;;25.25;20.75;;;;;-145.45;100.00;57426.63;4979594;28;45258;-73
2022/01/19 01:28:40;;;;;;;;;25.25;21.00;;;;;-145.45;100.00;57426.63;4979522;28;45346;-73
2022/01/19 01:31:07;;;;;;;;;21.75;18.75;;;;;-145.45;100.00;57426.63;4978549;28;47760;-73
2022/01/19 01:33:33;;;;;;;;;21.00;21.00;;;;;-145.45;100.00;57426.63;4979416;28;45278;-73
2022/01/19 01:35:59;;;;;;;;;22.50;20.50;;;;;-145.45;100.00;57426.63;4978933;28;45361;-73
2022/01/19 01:38:25;;;;;;;;;24.75;22.50;;;;;-145.45;100.00;57426.63;4977976;28;46970;-73
2022/01/19 01:40:50;;;;;;;;;24.50;17.75;;;;;-145.45;100.00;57426.63;4979709;28;45251;-73
2022/01/19 01:43:15;;;;;;;;;23.25;21.50;;;;;-145.45;100.00;57426.63;4978874;28;45673;-73
2022/01/19 01:45:44;;;;;;;;;22.75;22.25;;;;;-145.45;100.00;57426.63;4979792;28;45804;-73
2022/01/19 01:48:15;;;;;;;;;22.00;20.25;;;;;-145.45;100.00;57426.63;4978785;28;45342;-73
2022/01/19 01:53:28;;;;;;;;;21.25;20.25;;;;;-145.45;100.00;57426.63;4979161;28;45488;-73
2022/01/19 01:56:02;;;;;;;;;24.25;22.25;;;;;-145.45;100.00;57426.63;4979947;28;45406;-73
2022/01/19 01:58:31;;;;;;;;;24.00;22.00;;;;;-145.45;100.00;57426.63;4978960;28;45643;-73
2022/01/19 02:00:57;;;;;;;;;25.50;21.00;;;;;-145.45;100.00;57426.63;4979494;28;45332;-73
2022/01/19 02:03:23;;;;;;;;;23.00;21.50;;;;;-145.45;100.00;57426.63;4978270;28;45691;-73
2022/01/19 02:08:39;;;;;;;;;27.00;22.25;;;;;-145.45;100.00;57426.63;4979136;28;45445;-73
2022/01/19 02:11:35;;;;;;;;;24.75;24.50;;;;;-145.45;100.00;57426.63;4984036;28;47162;-73
2022/01/19 02:21:59;;;;;;;;;25.75;21.75;;;;;-145.45;100.00;57426.63;4979598;28;45229;-73
2022/01/19 02:24:32;;;;;;;;;23.75;22.50;;;;;-145.45;100.00;57426.63;4976296;28;45275;-73
2022/01/19 02:27:07;;;;;;;;;24.00;21.75;;;;;-145.45;100.00;57426.63;4974685;28;45283;-73
2022/01/19 02:40:31;;;;;;;;;37.50;24.25;;;;;-145.45;100.00;57426.63;4982323;28;45359;-73
2022/01/19 02:50:40;;;;;;;;;30.25;25.25;;;;;-145.45;100.00;57426.63;4969577;28;45275;-73
2022/01/19 02:53:05;;;;;;;;;26.50;24.50;;;;;-145.45;100.00;57426.63;4981391;28;46557;-73
2022/01/19 02:55:33;;;;;;;;;23.75;19.00;;;;;-145.45;100.00;57426.63;4980992;28;45285;-73
2022/01/19 02:57:58;;;;;;;;;23.75;22.00;;;;;-145.45;100.00;57426.63;4980099;28;45316;-72
2022/01/19 03:08:46;;;;;;;;;27.00;22.75;;;;;-145.45;100.00;57426.63;4981248;28;45310;-73
2022/01/19 03:11:13;;;;;;;;;24.75;18.50;;;;;-145.45;100.00;57426.63;4984118;28;45992;-73
2022/01/19 03:13:38;;;;;;;;;20.25;19.50;;;;;-145.45;100.00;57426.63;4981702;28;45431;-73
2022/01/19 03:16:04;;;;;;;;;26.50;23.25;;;;;-145.45;100.00;57426.63;4981444;28;45319;-73
2022/01/19 03:18:29;;;;;;;;;26.50;18.75;;;;;-145.45;100.00;57426.63;4981040;28;45396;-73
2022/01/19 03:20:55;;;;;;;;;30.25;24.75;;;;;-145.45;100.00;57426.63;4981869;28;45535;-73
2022/01/19 03:23:20;;;;;;;;;31.25;26.50;;;;;-145.45;100.00;57426.63;4981007;28;45585;-73
2022/01/19 03:25:51;;;;;;;;;25.75;22.00;;;;;-145.45;100.00;57426.63;4981812;28;45484;-71
2022/01/19 03:28:18;;;;;;;;;26.75;24.25;;;;;-145.45;100.00;57426.63;4981054;28;45483;-73
2022/01/19 03:30:45;;;;;;;;;28.25;24.00;;;;;-145.45;100.00;57426.63;4981621;28;45453;-72
2022/01/19 03:33:11;;;;;;;;;22.25;22.25;;;;;-145.45;100.00;57426.63;4980588;28;45439;-72
2022/01/19 03:35:40;;;;;;;;;25.50;22.50;;;;;-145.45;100.00;57426.63;4981459;28;45310;-73
2022/01/19 03:38:07;;;;;;;;;24.75;22.25;;;;;-145.45;100.00;57426.63;4979678;28;45262;-72
2022/01/19 03:40:33;;;;;;;;;23.25;21.25;;;;;-145.45;100.00;57426.63;4981379;28;45410;-73
2022/01/19 03:42:58;;;;;;;;;24.00;20.50;;;;;-145.45;100.00;57426.63;4980787;28;45476;-73
2022/01/19 03:45:23;;;;;;;;;26.25;23.25;;;;;-145.45;100.00;57426.63;4981201;28;45377;-73
2022/01/19 03:48:04;;;;;;;;;28.75;23.75;;;;;-145.45;100.00;57426.63;4980757;28;45365;-73
2022/01/19 03:50:30;;;;;;;;;26.50;22.75;;;;;-145.45;100.00;57426.63;4981291;28;45317;-73
2022/01/19 03:52:55;;;;;;;;;21.25;21.25;;;;;-145.45;100.00;57426.63;4980503;28;46520;-72
2022/01/19 03:55:20;;;;;;;;;24.50;21.00;;;;;-145.45;100.00;57426.63;4980404;28;45296;-73
2022/01/19 03:57:46;;;;;;;;;28.75;23.25;;;;;-145.45;100.00;57426.63;4980652;28;45283;-72
2022/01/19 04:00:12;;;;;;;;;31.25;26.50;;;;;-145.45;100.00;57426.63;4996324;28;46003;-73
2022/01/19 04:02:38;;;;;;;;;29.50;27.00;;;;;-145.45;100.00;57426.63;4980220;28;45438;-73
2022/01/19 04:05:10;;;;;;;;;59.75;45.25;;;;;-145.45;100.00;57426.63;4979763;28;44796;-72
2022/01/19 04:07:35;;;;;;;;;90.67;65.67;;;;;-145.45;100.00;57426.63;4973598;28;45404;-73
2022/01/19 04:10:01;;;;;;;;;62.25;47.50;;;;;-145.45;100.00;57426.63;4981095;28;45481;-73
2022/01/19 04:12:43;;;;;;;;;57.25;36.75;;;;;-145.45;100.00;57426.63;4980279;28;45272;-72
2022/01/19 04:15:10;;;;;;;;;36.50;28.25;;;;;-145.45;100.00;57426.63;4983929;28;45395;-73
2022/01/19 04:17:37;;;;;;;;;29.25;24.50;;;;;-145.45;100.00;57426.63;4976134;28;45488;-73
2022/01/19 04:20:03;;;;;;;;;24.25;21.75;;;;;-145.45;100.00;57426.63;4979834;28;47345;-73
2022/01/19 04:22:28;;;;;;;;;26.50;23.75;;;;;-145.45;100.00;57426.63;4980049;28;46015;-72
2022/01/19 04:24:53;;;;;;;;;27.50;23.25;;;;;-145.45;100.00;57426.63;4977191;28;44823;-72
2022/01/19 04:30:06;;;;;;;;;26.00;24.25;;;;;-145.45;100.00;57426.63;4980550;28;45516;-72
2022/01/19 04:32:45;;;;;;;;;31.25;23.25;;;;;-145.45;100.00;57426.63;4979387;28;46559;-73
2022/01/19 04:35:14;;;;;;;;;34.75;28.00;;;;;-145.45;100.00;57426.63;4980250;28;45429;-72
2022/01/19 05:05:04;;;;;;;;;27.00;23.50;;;;;-145.45;100.00;57426.63;4975181;28;45462;-72
2022/01/19 05:07:38;;;;;;;;;29.50;24.25;;;;;-145.45;100.00;57426.63;4979449;28;45514;-72
2022/01/19 05:15:32;;;;;;;;;28.00;23.50;;;;;-145.45;100.00;57426.63;4979840;28;45361;-72
2022/01/19 05:17:57;;;;;;;;;33.00;27.00;;;;;-145.45;100.00;57426.63;4979003;28;45416;-72
2022/01/19 05:20:23;;;;;;;;;26.50;25.00;;;;;-145.45;100.00;57426.63;4979782;28;45223;-72
2022/01/19 05:22:48;;;;;;;;;33.00;27.75;;;;;-145.45;100.00;57426.63;4977711;28;46867;-73
2022/01/19 05:25:13;;;;;;;;;32.50;31.00;;;;;-145.45;100.00;57426.63;4979630;28;46652;-70
2022/01/19 05:27:39;;;;;;;;;26.50;26.00;;;;;-145.45;100.00;57426.63;4994101;28;45843;-71
2022/01/19 05:30:05;;;;;;;;;27.50;24.00;;;;;-145.45;100.00;57426.63;4978442;28;45838;-71
2022/01/19 05:32:30;;;;;;;;;33.25;24.25;;;;;-145.45;100.00;57426.63;4978730;28;45480;-71
2022/01/19 05:34:56;;;;;;;;;35.00;31.25;;;;;-145.45;100.00;57426.63;4983571;28;47209;-71
2022/01/19 05:37:21;;;;;;;;;27.00;23.25;;;;;-145.45;100.00;57426.63;4973698;28;45567;-71
2022/01/19 05:39:47;;;;;;;;;37.00;33.00;;;;;-145.45;100.00;57426.63;4979948;28;45397;-71
2022/01/19 05:42:15;;;;;;;;;32.75;29.50;;;;;-145.45;100.00;57426.63;4978878;28;45216;-72
2022/01/19 05:44:43;;;;;;;;;31.75;28.75;;;;;-145.45;100.00;57426.63;4979446;28;45321;-72
2022/01/19 05:47:10;;;;;;;;;37.50;28.25;;;;;-145.45;100.00;57426.63;4977277;28;45302;-72
2022/01/19 05:49:37;;;;;;;;;38.25;28.00;;;;;-145.45;100.00;57426.63;4994774;28;45372;-72
2022/01/19 05:52:02;;;;;;;;;35.25;30.25;;;;;-145.45;100.00;57426.63;4978877;28;45346;-72
2022/01/19 05:54:27;;;;;;;;;38.00;34.00;;;;;-145.45;100.00;57426.63;4994314;28;47723;-71
2022/01/19 05:56:53;;;;;;;;;31.50;29.75;;;;;-145.45;100.00;57426.63;4979994;28;45318;-72
2022/01/19 05:59:19;;;;;;;;;36.50;33.25;;;;;-145.45;100.00;57426.63;4975281;28;45305;-72
2022/01/19 06:01:45;;;;;;;;;35.00;31.25;;;;;-145.45;100.00;57426.63;4982009;28;45504;-72
2022/01/19 06:04:10;;;;;;;;;43.00;35.25;;;;;-145.45;100.00;57426.63;4985906;28;47340;-72
2022/01/19 06:06:35;;;;;;;;;36.75;32.50;;;;;-145.45;100.00;57426.63;4981580;28;45645;-72
2022/01/19 06:09:09;;;;;;;;;37.00;34.50;;;;;-145.45;100.00;57426.63;4993806;28;45476;-72
2022/01/19 06:11:34;;;;;;;;;44.50;38.00;;;;;-145.45;100.00;57426.63;4979938;28;45660;-72
2022/01/19 06:13:59;;;;;;;;;39.00;34.00;;;;;-145.45;100.00;57426.63;4988720;28;47287;-71
2022/01/19 06:16:25;;;;;;;;;41.25;33.75;;;;;-145.45;100.00;57426.63;4981052;28;45234;-71
2022/01/19 06:18:50;;;;;;;;;41.00;35.75;;;;;-145.45;100.00;57426.63;4981894;28;45318;-71
2022/01/19 06:21:16;;;;;;;;;40.75;37.00;;;;;-145.45;100.00;57426.63;4981012;28;44886;-69
2022/01/19 06:23:42;;;;;;;;;45.50;38.00;;;;;-145.45;100.00;57426.63;4979457;28;46986;-71
2022/01/19 06:26:07;;;;;;;;;48.25;40.00;;;;;-145.45;100.00;57426.63;4994808;28;45445;-71
2022/01/19 06:28:33;;;;;;;;;37.50;32.00;;;;;-145.45;100.00;57426.63;4981476;28;45319;-72
2022/01/19 06:30:58;;;;;;;;;40.25;33.75;;;;;-145.45;100.00;57426.63;4982615;28;45761;-72
2022/01/19 06:33:24;;;;;;;;;46.00;36.50;;;;;-145.45;100.00;57426.63;4981343;28;46491;-72
2022/01/19 06:35:50;;;;;;;;;39.75;36.75;;;;;-145.45;100.00;57426.63;4982454;28;45334;-72
2022/01/19 06:38:15;;;;;;;;;49.50;38.25;;;;;-145.45;100.00;57426.63;4979771;28;45351;-71
2022/01/19 06:40:41;;;;;;;;;42.75;36.25;;;;;-145.45;100.00;57426.63;4982340;28;45374;-72
2022/01/19 06:43:06;;;;;;;;;47.75;37.25;;;;;-145.45;100.00;57426.63;4976678;28;45354;-72
2022/01/19 06:45:32;;;;;;;;;47.00;38.00;;;;;-145.45;100.00;57426.63;4981536;28;45275;-71
2022/01/19 06:47:58;;;;;;;;;37.75;34.25;;;;;-145.45;100.00;57426.63;4978303;28;45413;-71
2022/01/19 06:50:24;;;;;;;;;45.75;39.50;;;;;-145.45;100.00;57426.63;4977364;28;45831;-71
2022/01/19 06:52:50;;;;;;;;;40.00;37.50;;;;;-145.45;100.00;57426.63;4967684;28;47222;-71
2022/01/19 06:55:17;;;;;;;;;47.75;39.25;;;;;-145.45;100.00;57426.63;4980578;28;45326;-71
2022/01/19 06:57:44;;;;;;;;;46.00;39.25;;;;;-145.45;100.00;57426.63;4980050;28;45346;-71
2022/01/19 07:00:11;;;;;;;;;48.00;41.25;;;;;-145.45;100.00;57426.63;4981949;28;46074;-71
2022/01/19 07:02:37;;;;;;;;;38.50;36.25;;;;;-145.45;100.00;57426.63;4981099;28;45281;-71
2022/01/19 07:05:04;;;;;;;;;48.75;42.25;;;;;-145.45;100.00;57426.63;4981690;28;45306;-72
2022/01/19 07:07:30;;;;;;;;;47.25;37.50;;;;;-145.45;100.00;57426.63;4973887;28;45345;-72
2022/01/19 07:09:55;;;;;;;;;43.00;37.25;;;;;-145.45;100.00;57426.63;4977305;28;47009;-72
2022/01/19 07:12:21;;;;;;;;;42.25;36.75;;;;;-145.45;100.00;57426.63;4973648;28;45284;-72
2022/01/19 07:14:46;;;;;;;;;51.25;39.25;;;;;-145.45;100.00;57426.63;4981657;28;45410;-72
2022/01/19 07:17:12;;;;;;;;;48.50;38.50;;;;;-145.45;100.00;57426.63;4980960;28;45719;-72
2022/01/19 07:19:37;;;;;;;;;50.75;40.25;;;;;-145.45;100.00;57426.63;4981641;28;45382;-72
2022/01/19 07:22:03;;;;;;;;;51.75;38.25;;;;;-145.45;100.00;57426.63;4977435;28;46338;-71
2022/01/19 07:24:28;;;;;;;;;43.25;38.25;;;;;-145.45;100.00;57426.63;4996363;28;45432;-71
2022/01/19 07:26:54;;;;;;;;;47.25;37.00;;;;;-145.45;100.00;57426.63;4976498;28;45348;-71
2022/01/19 07:29:19;;;;;;;;;45.75;37.25;;;;;-145.45;100.00;57426.63;4981165;28;45475;-71
2022/01/19 07:31:44;;;;;;;;;38.50;36.00;;;;;-145.45;100.00;57426.63;4980145;28;46618;-72
2022/01/19 07:34:10;;;;;;;;;37.75;30.75;;;;;-145.45;100.00;57426.63;4980696;28;45504;-71
2022/01/19 07:36:37;;;;;;;;;50.50;38.25;;;;;-145.45;100.00;57426.63;4978118;28;45703;-71
2022/01/19 07:39:03;;;;;;;;;51.00;40.00;;;;;-145.45;100.00;57426.63;4979122;28;45202;-72
2022/01/19 07:41:29;;;;;;;;;36.50;36.50;;;;;-145.45;100.00;57426.63;4978655;28;47086;-71
2022/01/19 07:43:54;;;;;;;;;40.50;35.75;;;;;-145.45;100.00;57426.63;4980880;28;45223;-71
2022/01/19 07:46:19;;;;;;;;;52.00;39.00;;;;;-145.45;100.00;57426.63;4979416;28;45438;-72
2022/01/19 07:48:45;;;;;;;;;47.00;36.50;;;;;-145.45;100.00;57426.63;4980943;28;45305;-71
2022/01/19 07:51:11;;;;;;;;;37.75;36.75;;;;;-145.45;100.00;57426.63;4980311;28;45318;-71
2022/01/19 07:53:36;;;;;;;;;49.75;39.50;;;;;-145.45;100.00;57426.63;4980791;28;45290;-71
2022/01/19 07:56:03;;;;;;;;;42.25;38.75;;;;;-145.45;100.00;57426.63;4996537;28;45389;-71
2022/01/19 07:58:28;;;;;;;;;40.25;34.00;;;;;-145.45;100.00;57426.63;4980063;28;45472;-71
2022/01/19 08:00:54;;;;;;;;;48.50;38.50;;;;;-145.45;100.00;57426.63;4980964;28;45799;-71
2022/01/19 08:03:19;;;;;;;;;44.00;36.50;;;;;-145.45;100.00;57426.63;4980227;28;45453;-71
2022/01/19 08:05:44;;;;;;;;;49.00;37.75;;;;;-145.45;100.00;57426.63;4989179;28;45376;-71
2022/01/19 08:08:10;;;;;;;;;45.00;38.00;;;;;-145.45;100.00;57426.63;4980017;28;45468;-71
2022/01/19 08:10:35;;;;;;;;;40.50;38.50;;;;;-145.45;100.00;57426.63;4980883;28;45432;-71
2022/01/19 08:13:03;;;;;;;;;42.00;35.75;;;;;-145.45;100.00;57426.63;4980044;28;44834;-71
2022/01/19 08:15:29;;;;;;;;;42.50;36.50;;;;;-145.45;100.00;57426.63;4980890;28;45231;-71
2022/01/19 08:17:55;;;;;;;;;46.50;36.25;;;;;-145.45;100.00;57426.63;4979919;28;45294;-71
2022/01/19 08:20:20;;;;;;;;;42.50;37.75;;;;;-145.45;100.00;57426.63;4979544;28;46629;-71
2022/01/19 08:22:46;;;;;;;;;46.75;38.75;;;;;-145.45;100.00;57426.63;4980075;28;45358;-71
2022/01/19 08:25:11;;;;;;;;;43.50;37.50;;;;;-145.45;100.00;57426.63;4995133;28;45583;-71
2022/01/19 08:27:37;;;;;;;;;42.75;36.50;;;;;-145.45;100.00;57426.63;4975164;28;45541;-72
2022/01/19 08:30:05;;;;;;;;;33.75;31.75;;;;;-145.45;100.00;57426.63;4980565;28;46200;-71
2022/01/19 08:32:31;;;;;;;;;33.50;31.75;;;;;-145.45;100.00;57426.63;4979614;28;45654;-71
2022/01/19 08:34:56;;;;;;;;;44.25;37.00;;;;;-145.45;100.00;57426.63;4980583;28;45321;-70
2022/01/19 08:37:21;;;;;;;;;43.50;37.00;;;;;-145.45;100.00;57426.63;4977614;28;45385;-71
2022/01/19 08:39:47;;;;;;;;;42.25;37.00;;;;;-145.45;100.00;57426.63;4980455;28;45495;-71
2022/01/19 08:42:21;;;;;;;;;39.50;34.75;;;;;;;;5068986;28;45441;-70
2022/01/19 08:44:47;;;;;;;;;45.75;38.00;;;;;;;;5056029;28;45225;-70
2022/01/19 08:47:12;;;;;;;;;44.00;34.50;;;;;;;;5055024;28;45347;-70
2022/01/19 08:49:37;;;;;;;;;41.75;34.00;;;;;;;;5056206;28;45342;-70
2022/01/19 08:52:03;;;;;;;;;35.50;26.50;;;;;;;;5055115;28;46281;-70
2022/01/19 08:54:29;;;;;;;;;40.25;36.00;;;;;;;;5055911;28;45291;-70
2022/01/19 08:56:54;;;;;;;;;44.50;34.25;;;;;;;;5055087;28;45370;-70
2022/01/19 08:59:20;;;;;;;;;37.50;32.50;;;;;;;;5055326;28;45288;-70
2022/01/19 09:01:45;;;;;;;;;31.50;27.75;;;;;;;;5054609;28;45639;-70
2022/01/19 09:04:10;;;;;;;;;41.00;36.75;;;;;;;;5054253;28;45353;-70
2022/01/19 09:06:35;;;;;;;;;41.50;33.00;;;;;;;;5055276;28;45359;-71
2022/01/19 09:09:00;;;;;;;;;45.25;36.25;;;;;;;;5055641;28;45425;-70
2022/01/19 09:11:26;;;;;;;;;41.50;35.25;;;;;;;;5052891;28;46388;-70
2022/01/19 09:13:51;;;;;;;;;44.00;36.75;;;;;;;;5058429;28;46003;-71
2022/01/19 09:16:17;;;;;;;;;50.75;41.25;;;;;;;;5055074;28;45229;-71
2022/01/19 09:18:42;;;;;;;;;54.75;39.00;;;;;;;;5055545;28;45371;-70
2022/01/19 09:21:07;;;;;;;;;30.75;23.75;;;;;;;;5053907;28;47457;-70
2022/01/19 09:23:35;;;;;;;;;35.00;33.00;;;;;;;;5052704;28;45572;-70
2022/01/19 09:26:00;;;;;;;;;49.75;37.00;;;;;;;;5055615;28;45334;-70
2022/01/19 09:28:25;;;;;;;;;44.25;35.75;;;;;;;;5054453;28;45299;-70
2022/01/19 09:30:51;;;;;;;;;43.00;37.75;;;;;;;;5055283;28;46512;-70
2022/01/19 09:33:22;;;;;;;;;32.50;31.00;;;;;;;;5054526;28;44739;-70
2022/01/19 09:38:27;;;;;;;;;39.50;34.00;;;;;;;;5054705;28;45430;-70
2022/01/19 09:40:52;;;;;;;;;34.00;29.25;;;;;;;;5053864;28;46780;-70
2022/01/19 09:43:21;;;;;;;;;40.00;36.75;;;;;;;;5054558;28;45252;-70
2022/01/19 09:45:47;;;;;;;;;49.50;38.00;;;;;;;;5055340;28;45308;-70
2022/01/19 09:48:12;;;;;;;;;42.75;37.00;;;;;;;;5054211;28;45628;-71
2022/01/19 09:50:37;;;;;;;;;34.75;31.50;;;;;;;;5055132;28;45548;-71
2022/01/19 09:53:04;;;;;;;;;38.75;34.50;;;;;;;;5057126;28;45724;-71
2022/01/19 09:55:29;;;;;;;;;37.50;34.00;;;;;;;;5039671;28;45566;-71
2022/01/19 09:57:54;;;;;;;;;31.25;28.75;;;;;;;;5040820;28;45502;-71
2022/01/19 10:00:19;;;;;;;;;44.75;36.00;;;;;;;;5041283;28;46591;-71
2022/01/19 10:03:05;;;;;;;;;39.50;34.75;;;;;;;;5040726;28;45375;-71
2022/01/19 10:05:30;;;;;;;;;42.25;36.75;;;;;;;;5024584;28;45553;-71
2022/01/19 10:07:59;;;;;;;;;49.75;38.50;;;;;;;;5034963;28;45655;-71
2022/01/19 10:10:24;;;;;;;;;40.25;37.75;;;;;;;;5040716;28;45467;-71
2022/01/19 10:18:18;;;;;;;;;51.50;39.50;;;;;;;;5039491;28;45260;-70
2022/01/19 10:20:44;;;;;;;;;39.25;38.25;;;;;;;;5040139;28;45601;-71
2022/01/19 10:23:33;;;;;;;;;43.00;37.00;;;;;;;;5037187;28;45146;-71
2022/01/19 10:25:58;;;;;;;;;52.50;39.75;;;;;;;;5038678;28;45415;-72
2022/01/19 10:28:23;;;;;;;;;49.75;40.75;;;;;;;;5031165;28;45414;-71
2022/01/19 10:30:48;;;;;;;;;54.75;39.25;;;;;;;;5040968;28;45440;-72
2022/01/19 10:33:16;;;;;;;;;54.75;40.50;;;;;;;;5039972;28;45371;-72
2022/01/19 10:35:41;;;;;;;;;53.75;39.50;;;;;;;;5040678;28;45250;-72
2022/01/19 10:38:06;;;;;;;;;42.75;35.75;;;;;;;;5034833;28;45558;-71
2022/01/19 10:40:32;;;;;;;;;55.50;37.75;;;;;;;;5037802;28;47008;-71
2022/01/19 10:42:58;;;;;;;;;55.25;44.00;;;;;;;;5040067;28;45223;-72
2022/01/19 10:45:23;;;;;;;;;56.00;43.00;;;;;;;;5039183;28;45378;-72
2022/01/19 10:47:50;;;;;;;;;55.50;44.75;;;;;;;;5035295;28;45857;-72
2022/01/19 10:50:28;;;;;;;;;55.75;39.75;;;;;;;;5039943;28;45608;-72
2022/01/19 10:52:54;;;;;;;;;45.50;38.75;;;;;;;;5038478;28;45504;-72
2022/01/19 10:55:19;;;;;;;;;52.75;40.25;;;;;;;;5039307;28;45285;-73
2022/01/19 10:57:45;;;;;;;;;58.25;45.50;;;;;;;;5052079;28;46033;-72
2022/01/19 11:00:10;;;;;;;;;54.25;43.50;;;;;;;;5039069;28;47991;-72
2022/01/19 11:02:37;;;;;;;;;51.00;40.00;;;;;;;;5039739;28;45411;-72
2022/01/19 11:05:02;;;;;;;;;53.00;40.25;;;;;;;;5039607;28;45539;-72
2022/01/19 11:07:27;;;;;;;;;54.00;42.25;;;;;;;;5039617;28;45319;-72
2022/01/19 11:10:10;;;;;;;;;57.00;47.00;;;;;;;;5033775;28;45284;-72
2022/01/19 11:12:44;;;;;;;;;61.25;49.75;;;;;;;;5037271;28;45269;-72
2022/01/19 11:15:10;;;;;;;;;57.75;46.50;;;;;;;;5040423;28;45336;-73
2022/01/19 11:17:35;;;;;;;;;63.50;49.25;;;;;;;;5037883;28;47378;-72
2022/01/19 11:20:06;;;;;;;;;65.75;50.25;;;;;;;;5038712;28;46992;-72
2022/01/19 11:22:34;;;;;;;;;64.25;48.75;;;;;;;;5028394;28;45319;-72
2022/01/19 11:25:23;;;;;;;;;68.00;53.00;;;;;;;;5040469;28;45346;-72
2022/01/19 11:27:48;;;;;;;;;61.50;50.00;;;;;;;;5037536;28;46178;-73
2022/01/19 11:30:14;;;;;;;;;64.00;49.75;;;;;;;;5038616;28;47473;-72
2022/01/19 11:32:39;;;;;;;;;62.25;50.25;;;;;;;;5045519;28;44754;-72
2022/01/19 11:35:05;;;;;;;;;63.50;47.00;;;;;;;;5038796;28;45352;-72
2022/01/19 11:37:35;;;;;;;;;61.00;47.75;;;;;;;;5038862;28;46118;-72
2022/01/19 11:40:07;;;;;;;;;60.00;46.25;;;;;;;;5040103;28;46435;-73
2022/01/19 11:42:32;;;;;;;;;61.50;46.75;;;;;;;;5059538;28;45411;-72
2022/01/19 11:44:58;;;;;;;;;59.00;47.00;;;;;;;;5059945;28;45506;-72
2022/01/19 11:47:31;;;;;;;;;59.75;48.50;;;;;;;;5055411;28;45809;-72
2022/01/19 11:50:00;;;;;;;;;58.75;47.75;;;;;;;;5059603;28;46542;-72
2022/01/19 11:52:33;;;;;;;;;60.00;44.50;;;;;;;;5038720;28;45480;-72
2022/01/19 11:55:10;;;;;;;;;49.00;37.50;;;;;;;;5059937;28;45415;-72
2022/01/19 11:57:35;;;;;;;;;62.00;46.25;;;;;;;;5059023;28;45400;-72
2022/01/19 12:00:04;;;;;;;;;52.00;43.00;;;;;;;;5059575;28;45586;-72
2022/01/19 12:02:36;;;;;;;;;58.50;44.25;;;;;;;;5058687;28;45313;-72
2022/01/19 12:05:04;;;;;;;;;53.50;42.00;;;;;;;;5059561;28;45442;-72
2022/01/19 12:07:33;;;;;;;;;48.50;42.25;;;;;;;;5040677;28;47668;-72
2022/01/19 12:09:58;;;;;;;;;55.00;43.00;;;;;;;;5059385;28;45345;-72
2022/01/19 12:12:28;;;;;;;;;47.50;40.00;;;;;;;;5058774;28;45471;-72
2022/01/19 12:14:53;;;;;;;;;60.00;43.00;;;;;;;;5041242;28;45340;-72
2022/01/19 12:17:36;;;;;;;;;44.75;38.25;;;;;;;;5058249;28;45554;-72
2022/01/19 12:20:01;;;;;;;;;53.75;40.75;;;;;;;;5035674;28;47567;-72
2022/01/19 12:22:28;;;;;;;;;57.75;43.25;;;;;;;;5058638;28;44812;-72
2022/01/19 12:24:56;;;;;;;;;46.25;38.25;;;;;;;;5059547;28;45489;-72
2022/01/19 12:27:35;;;;;;;;;52.50;40.75;;;;;;;;5058453;28;45415;-72
2022/01/19 12:30:03;;;;;;;;;43.25;36.00;;;;;;;;5059239;28;45482;-72
2022/01/19 12:32:28;;;;;;;;;36.75;35.75;;;;;;;;5058372;28;45415;-72
2022/01/19 12:34:54;;;;;;;;;41.75;37.25;;;;;;;;5048299;28;45178;-72
2022/01/19 12:37:34;;;;;;;;;37.50;36.25;;;;;;;;5048816;28;45847;-72
2022/01/19 12:40:01;;;;;;;;;37.00;30.50;;;;;;;;5040667;28;46813;-73
2022/01/19 12:42:40;;;;;;;;;37.00;29.50;;;;;;;;5058132;28;45404;-73
2022/01/19 12:45:22;;;;;;;;;35.50;33.75;;;;;;;;5040869;28;45651;-73
2022/01/19 12:47:51;;;;;;;;;35.25;27.25;;;;;;;;5058110;28;45721;-73
2022/01/19 12:50:17;;;;;;;;;36.50;34.50;;;;;;;;5043209;28;47333;-73
2022/01/19 12:52:44;;;;;;;;;43.50;36.50;;;;;;;;5048373;28;45217;-73
2022/01/19 12:55:12;;;;;;;;;17.00;15.50;;;;;;;;5049494;28;45380;-73
2022/01/19 12:57:37;;;;;;;;;37.25;32.00;;;;;;;;5057000;28;47054;-73
2022/01/19 13:00:05;;;;;;;;;31.00;26.25;;;;;;;;5040513;28;46768;-73
2022/01/19 13:02:30;;;;;;;;;26.25;22.50;;;;;;;;5058055;28;45272;-73
2022/01/19 13:05:04;;;;;;;;;37.00;31.25;;;;;;;;5041092;28;45407;-73
2022/01/19 13:07:31;;;;;;;;;42.00;34.75;;;;;;;;5058055;28;45479;-73
2022/01/19 13:10:49;;;;;;;;;33.00;31.25;;;;;;;;5058874;28;45337;-73
2022/01/19 13:12:56;;;;;;;;;43.00;35.00;;;;;;;;5048411;28;45235;-73
2022/01/19 13:15:38;;;;;;;;;36.75;28.50;;;;;;;;5058963;28;45257;-73
2022/01/19 13:18:03;;;;;;;;;42.75;36.50;;;;;;;;5057724;28;45320;-73
2022/01/19 13:20:28;;;;;;;;;35.25;32.50;;;;;;;;5058488;28;45587;-73
2022/01/19 13:22:55;;;;;;;;;29.75;25.25;;;;;;;;5057999;28;45425;-73
2022/01/19 13:25:23;;;;;;;;;36.25;29.25;;;;;;;;5058586;28;45407;-73